sensor_id;sensor_type;location;lat;lon;timestamp;P1;durP1;ratioP1;P2;durP2;ratioP2
66095;SDS011;53861;53.422;14.530;2023-10-31T00:00:36;70.38;;;19.48;;
66095;SDS011;53861;53.422;14.530;2023-10-31T00:03:03;71.88;;;18.60;;
66095;SDS011;53861;53.422;14.530;2023-10-31T00:05:30;68.53;;;19.73;;
66095;SDS011;53861;53.422;14.530;2023-10-31T00:07:58;69.47;;;19.20;;
66095;SDS011;53861;53.422;14.530;2023-10-31T00:10:25;58.42;;;17.90;;
66095;SDS011;53861;53.422;14.530;2023-10-31T00:12:52;64.15;;;18.50;;
66095;SDS011;53861;53.422;14.530;2023-10-31T00:15:22;67.57;;;19.73;;
66095;SDS011;53861;53.422;14.530;2023-10-31T00:17:50;73.10;;;18.88;;
66095;SDS011;53861;53.422;14.530;2023-10-31T00:20:18;64.85;;;18.10;;
66095;SDS011;53861;53.422;14.530;2023-10-31T00:22:45;59.35;;;17.85;;
66095;SDS011;53861;53.422;14.530;2023-10-31T00:25:13;58.10;;;16.92;;
66095;SDS011;53861;53.422;14.530;2023-10-31T00:27:40;55.47;;;15.80;;
66095;SDS011;53861;53.422;14.530;2023-10-31T00:30:07;54.15;;;15.88;;
66095;SDS011;53861;53.422;14.530;2023-10-31T00:32:36;54.60;;;14.38;;
66095;SDS011;53861;53.422;14.530;2023-10-31T00:35:04;55.10;;;15.15;;
66095;SDS011;53861;53.422;14.530;2023-10-31T00:37:32;55.08;;;15.60;;
66095;SDS011;53861;53.422;14.530;2023-10-31T00:39:59;51.88;;;15.07;;
66095;SDS011;53861;53.422;14.530;2023-10-31T00:42:26;64.43;;;16.23;;
66095;SDS011;53861;53.422;14.530;2023-10-31T00:44:58;55.53;;;14.02;;
66095;SDS011;53861;53.422;14.530;2023-10-31T00:47:26;52.05;;;15.32;;
66095;SDS011;53861;53.422;14.530;2023-10-31T00:49:55;51.97;;;14.93;;
66095;SDS011;53861;53.422;14.530;2023-10-31T00:52:22;54.05;;;13.93;;
66095;SDS011;53861;53.422;14.530;2023-10-31T00:54:50;52.53;;;14.85;;
66095;SDS011;53861;53.422;14.530;2023-10-31T00:57:17;55.72;;;14.93;;
66095;SDS011;53861;53.422;14.530;2023-10-31T00:59:44;58.63;;;15.68;;
66095;SDS011;53861;53.422;14.530;2023-10-31T01:02:11;60.13;;;15.65;;
66095;SDS011;53861;53.422;14.530;2023-10-31T01:04:39;52.33;;;15.68;;
66095;SDS011;53861;53.422;14.530;2023-10-31T01:07:08;57.28;;;16.73;;
66095;SDS011;53861;53.422;14.530;2023-10-31T01:09:37;52.30;;;14.77;;
66095;SDS011;53861;53.422;14.530;2023-10-31T01:12:05;50.63;;;15.35;;
66095;SDS011;53861;53.422;14.530;2023-10-31T01:14:33;57.38;;;16.42;;
66095;SDS011;53861;53.422;14.530;2023-10-31T01:17:00;56.40;;;15.00;;
66095;SDS011;53861;53.422;14.530;2023-10-31T01:19:27;59.30;;;16.23;;
66095;SDS011;53861;53.422;14.530;2023-10-31T01:21:55;53.83;;;15.10;;
66095;SDS011;53861;53.422;14.530;2023-10-31T01:24:24;54.25;;;15.77;;
66095;SDS011;53861;53.422;14.530;2023-10-31T01:26:51;56.30;;;16.08;;
66095;SDS011;53861;53.422;14.530;2023-10-31T01:29:18;56.47;;;16.17;;
66095;SDS011;53861;53.422;14.530;2023-10-31T01:31:48;54.05;;;16.17;;
66095;SDS011;53861;53.422;14.530;2023-10-31T01:34:15;54.63;;;17.33;;
66095;SDS011;53861;53.422;14.530;2023-10-31T01:36:43;57.65;;;17.05;;
66095;SDS011;53861;53.422;14.530;2023-10-31T01:39:10;56.42;;;17.70;;
66095;SDS011;53861;53.422;14.530;2023-10-31T01:41:39;65.13;;;19.67;;
66095;SDS011;53861;53.422;14.530;2023-10-31T01:44:07;60.08;;;17.60;;
66095;SDS011;53861;53.422;14.530;2023-10-31T01:46:35;56.47;;;17.95;;
66095;SDS011;53861;53.422;14.530;2023-10-31T01:49:04;61.17;;;18.20;;
66095;SDS011;53861;53.422;14.530;2023-10-31T01:51:32;63.20;;;19.33;;
66095;SDS011;53861;53.422;14.530;2023-10-31T01:53:59;63.78;;;19.10;;
66095;SDS011;53861;53.422;14.530;2023-10-31T01:56:27;73.40;;;19.98;;
66095;SDS011;53861;53.422;14.530;2023-10-31T01:58:56;71.88;;;20.13;;
66095;SDS011;53861;53.422;14.530;2023-10-31T02:01:24;59.67;;;18.85;;
66095;SDS011;53861;53.422;14.530;2023-10-31T02:03:52;56.75;;;17.23;;
66095;SDS011;53861;53.422;14.530;2023-10-31T02:06:20;73.88;;;20.88;;
66095;SDS011;53861;53.422;14.530;2023-10-31T02:08:48;80.90;;;20.70;;
66095;SDS011;53861;53.422;14.530;2023-10-31T02:11:15;69.25;;;20.85;;
66095;SDS011;53861;53.422;14.530;2023-10-31T02:13:42;70.28;;;21.35;;
66095;SDS011;53861;53.422;14.530;2023-10-31T02:16:11;65.20;;;19.95;;
66095;SDS011;53861;53.422;14.530;2023-10-31T02:18:39;72.15;;;20.00;;
66095;SDS011;53861;53.422;14.530;2023-10-31T02:21:06;69.95;;;20.55;;
66095;SDS011;53861;53.422;14.530;2023-10-31T02:23:35;67.03;;;20.85;;
66095;SDS011;53861;53.422;14.530;2023-10-31T02:26:04;69.65;;;20.02;;
66095;SDS011;53861;53.422;14.530;2023-10-31T02:28:31;68.88;;;21.10;;
66095;SDS011;53861;53.422;14.530;2023-10-31T02:30:58;65.50;;;19.67;;
66095;SDS011;53861;53.422;14.530;2023-10-31T02:33:26;66.22;;;19.42;;
66095;SDS011;53861;53.422;14.530;2023-10-31T02:35:53;61.22;;;19.83;;
66095;SDS011;53861;53.422;14.530;2023-10-31T02:38:20;70.30;;;19.88;;
66095;SDS011;53861;53.422;14.530;2023-10-31T02:40:49;63.22;;;19.58;;
66095;SDS011;53861;53.422;14.530;2023-10-31T02:43:16;73.28;;;21.85;;
66095;SDS011;53861;53.422;14.530;2023-10-31T02:45:43;75.82;;;21.50;;
66095;SDS011;53861;53.422;14.530;2023-10-31T02:48:11;67.57;;;21.23;;
66095;SDS011;53861;53.422;14.530;2023-10-31T02:50:38;68.22;;;20.98;;
66095;SDS011;53861;53.422;14.530;2023-10-31T02:53:05;73.20;;;22.40;;
66095;SDS011;53861;53.422;14.530;2023-10-31T02:55:32;68.13;;;20.85;;
66095;SDS011;53861;53.422;14.530;2023-10-31T02:58:01;62.72;;;20.13;;
66095;SDS011;53861;53.422;14.530;2023-10-31T03:00:28;65.60;;;19.95;;
66095;SDS011;53861;53.422;14.530;2023-10-31T03:02:56;65.35;;;20.13;;
66095;SDS011;53861;53.422;14.530;2023-10-31T03:05:23;71.72;;;21.58;;
66095;SDS011;53861;53.422;14.530;2023-10-31T03:07:50;71.57;;;21.95;;
66095;SDS011;53861;53.422;14.530;2023-10-31T03:10:19;70.97;;;20.42;;
66095;SDS011;53861;53.422;14.530;2023-10-31T03:12:46;70.35;;;22.00;;
66095;SDS011;53861;53.422;14.530;2023-10-31T03:15:15;74.70;;;21.42;;
66095;SDS011;53861;53.422;14.530;2023-10-31T03:17:42;84.80;;;22.58;;
66095;SDS011;53861;53.422;14.530;2023-10-31T03:20:10;81.93;;;23.60;;
66095;SDS011;53861;53.422;14.530;2023-10-31T03:25:19;70.57;;;22.92;;
66095;SDS011;53861;53.422;14.530;2023-10-31T03:27:46;69.60;;;22.10;;
66095;SDS011;53861;53.422;14.530;2023-10-31T03:30:13;69.18;;;21.55;;
66095;SDS011;53861;53.422;14.530;2023-10-31T03:32:42;71.78;;;23.05;;
66095;SDS011;53861;53.422;14.530;2023-10-31T03:35:09;87.03;;;24.92;;
66095;SDS011;53861;53.422;14.530;2023-10-31T03:37:37;90.45;;;25.65;;
66095;SDS011;53861;53.422;14.530;2023-10-31T03:40:07;88.78;;;25.73;;
66095;SDS011;53861;53.422;14.530;2023-10-31T03:42:35;97.75;;;26.35;;
66095;SDS011;53861;53.422;14.530;2023-10-31T03:45:02;95.35;;;27.25;;
66095;SDS011;53861;53.422;14.530;2023-10-31T03:47:31;90.85;;;27.40;;
66095;SDS011;53861;53.422;14.530;2023-10-31T03:49:59;98.05;;;27.38;;
66095;SDS011;53861;53.422;14.530;2023-10-31T03:52:26;92.32;;;26.83;;
66095;SDS011;53861;53.422;14.530;2023-10-31T03:54:54;88.20;;;26.08;;
66095;SDS011;53861;53.422;14.530;2023-10-31T03:57:21;88.57;;;26.00;;
66095;SDS011;53861;53.422;14.530;2023-10-31T03:59:48;96.43;;;26.23;;
66095;SDS011;53861;53.422;14.530;2023-10-31T04:02:15;115.43;;;28.08;;
66095;SDS011;53861;53.422;14.530;2023-10-31T04:04:44;93.80;;;27.52;;
66095;SDS011;53861;53.422;14.530;2023-10-31T04:07:11;91.53;;;28.55;;
66095;SDS011;53861;53.422;14.530;2023-10-31T04:09:38;95.03;;;27.83;;
66095;SDS011;53861;53.422;14.530;2023-10-31T04:12:06;103.22;;;29.10;;
66095;SDS011;53861;53.422;14.530;2023-10-31T04:14:33;101.47;;;29.00;;
66095;SDS011;53861;53.422;14.530;2023-10-31T04:17:01;99.22;;;28.05;;
66095;SDS011;53861;53.422;14.530;2023-10-31T04:19:28;99.50;;;27.88;;
66095;SDS011;53861;53.422;14.530;2023-10-31T04:21:57;98.35;;;28.05;;
66095;SDS011;53861;53.422;14.530;2023-10-31T04:24:24;97.28;;;28.02;;
66095;SDS011;53861;53.422;14.530;2023-10-31T04:26:51;96.57;;;27.40;;
66095;SDS011;53861;53.422;14.530;2023-10-31T04:29:19;102.25;;;28.58;;
66095;SDS011;53861;53.422;14.530;2023-10-31T04:31:46;106.60;;;28.27;;
66095;SDS011;53861;53.422;14.530;2023-10-31T04:34:13;93.97;;;28.05;;
66095;SDS011;53861;53.422;14.530;2023-10-31T04:36:40;108.75;;;30.88;;
66095;SDS011;53861;53.422;14.530;2023-10-31T04:39:09;104.88;;;31.27;;
66095;SDS011;53861;53.422;14.530;2023-10-31T04:41:36;105.70;;;29.38;;
66095;SDS011;53861;53.422;14.530;2023-10-31T04:44:04;102.28;;;28.15;;
66095;SDS011;53861;53.422;14.530;2023-10-31T04:46:32;113.57;;;31.27;;
66095;SDS011;53861;53.422;14.530;2023-10-31T04:48:59;113.95;;;31.67;;
66095;SDS011;53861;53.422;14.530;2023-10-31T04:51:26;107.90;;;31.52;;
66095;SDS011;53861;53.422;14.530;2023-10-31T04:53:53;110.57;;;32.92;;
66095;SDS011;53861;53.422;14.530;2023-10-31T04:56:22;110.22;;;32.45;;
66095;SDS011;53861;53.422;14.530;2023-10-31T04:58:49;113.60;;;33.67;;
66095;SDS011;53861;53.422;14.530;2023-10-31T05:01:16;99.15;;;29.60;;
66095;SDS011;53861;53.422;14.530;2023-10-31T05:03:44;110.65;;;30.85;;
66095;SDS011;53861;53.422;14.530;2023-10-31T05:06:11;123.95;;;31.95;;
66095;SDS011;53861;53.422;14.530;2023-10-31T05:08:39;121.18;;;32.58;;
66095;SDS011;53861;53.422;14.530;2023-10-31T05:11:06;113.85;;;30.48;;
66095;SDS011;53861;53.422;14.530;2023-10-31T05:13:35;116.80;;;31.70;;
66095;SDS011;53861;53.422;14.530;2023-10-31T05:16:02;115.15;;;31.35;;
66095;SDS011;53861;53.422;14.530;2023-10-31T05:18:30;217.88;;;43.05;;
66095;SDS011;53861;53.422;14.530;2023-10-31T05:20:57;201.40;;;40.00;;
66095;SDS011;53861;53.422;14.530;2023-10-31T05:23:25;143.43;;;35.22;;
66095;SDS011;53861;53.422;14.530;2023-10-31T05:25:52;162.38;;;35.30;;
66095;SDS011;53861;53.422;14.530;2023-10-31T05:28:19;253.50;;;44.75;;
66095;SDS011;53861;53.422;14.530;2023-10-31T05:30:48;146.20;;;34.05;;
66095;SDS011;53861;53.422;14.530;2023-10-31T05:33:15;134.20;;;33.38;;
66095;SDS011;53861;53.422;14.530;2023-10-31T05:35:42;157.35;;;33.92;;
66095;SDS011;53861;53.422;14.530;2023-10-31T05:38:10;146.23;;;34.85;;
66095;SDS011;53861;53.422;14.530;2023-10-31T05:40:37;112.72;;;28.95;;
66095;SDS011;53861;53.422;14.530;2023-10-31T05:43:04;117.07;;;31.88;;
66095;SDS011;53861;53.422;14.530;2023-10-31T05:45:31;119.13;;;31.52;;
66095;SDS011;53861;53.422;14.530;2023-10-31T05:48:01;97.95;;;28.25;;
66095;SDS011;53861;53.422;14.530;2023-10-31T05:50:29;97.70;;;28.50;;
66095;SDS011;53861;53.422;14.530;2023-10-31T05:52:56;102.90;;;28.98;;
66095;SDS011;53861;53.422;14.530;2023-10-31T05:55:23;108.95;;;30.52;;
66095;SDS011;53861;53.422;14.530;2023-10-31T05:57:51;114.90;;;30.27;;
66095;SDS011;53861;53.422;14.530;2023-10-31T06:00:18;116.70;;;29.77;;
66095;SDS011;53861;53.422;14.530;2023-10-31T06:02:45;109.63;;;28.35;;
66095;SDS011;53861;53.422;14.530;2023-10-31T06:05:14;107.90;;;28.88;;
66095;SDS011;53861;53.422;14.530;2023-10-31T06:07:41;99.70;;;27.90;;
66095;SDS011;53861;53.422;14.530;2023-10-31T06:10:09;105.80;;;29.42;;
66095;SDS011;53861;53.422;14.530;2023-10-31T06:12:36;108.22;;;29.73;;
66095;SDS011;53861;53.422;14.530;2023-10-31T06:15:04;106.40;;;30.55;;
66095;SDS011;53861;53.422;14.530;2023-10-31T06:17:33;109.47;;;28.70;;
66095;SDS011;53861;53.422;14.530;2023-10-31T06:20:01;117.35;;;31.92;;
66095;SDS011;53861;53.422;14.530;2023-10-31T06:22:30;111.93;;;31.55;;
66095;SDS011;53861;53.422;14.530;2023-10-31T06:24:57;107.63;;;30.73;;
66095;SDS011;53861;53.422;14.530;2023-10-31T06:27:24;107.82;;;29.92;;
66095;SDS011;53861;53.422;14.530;2023-10-31T06:29:52;102.85;;;29.05;;
66095;SDS011;53861;53.422;14.530;2023-10-31T06:32:21;103.68;;;28.63;;
66095;SDS011;53861;53.422;14.530;2023-10-31T06:34:51;91.88;;;26.88;;
66095;SDS011;53861;53.422;14.530;2023-10-31T06:37:18;100.28;;;28.80;;
66095;SDS011;53861;53.422;14.530;2023-10-31T06:39:47;97.50;;;28.75;;
66095;SDS011;53861;53.422;14.530;2023-10-31T06:42:14;97.30;;;26.67;;
66095;SDS011;53861;53.422;14.530;2023-10-31T06:44:41;93.93;;;28.08;;
66095;SDS011;53861;53.422;14.530;2023-10-31T06:47:09;89.10;;;26.23;;
66095;SDS011;53861;53.422;14.530;2023-10-31T06:49:36;84.80;;;23.83;;
66095;SDS011;53861;53.422;14.530;2023-10-31T06:52:04;88.35;;;25.17;;
66095;SDS011;53861;53.422;14.530;2023-10-31T06:54:31;87.72;;;26.45;;
66095;SDS011;53861;53.422;14.530;2023-10-31T06:57:01;86.65;;;25.10;;
66095;SDS011;53861;53.422;14.530;2023-10-31T06:59:29;88.90;;;24.52;;
66095;SDS011;53861;53.422;14.530;2023-10-31T07:01:56;83.65;;;23.75;;
66095;SDS011;53861;53.422;14.530;2023-10-31T07:04:24;73.78;;;22.67;;
66095;SDS011;53861;53.422;14.530;2023-10-31T07:06:51;84.18;;;23.55;;
66095;SDS011;53861;53.422;14.530;2023-10-31T07:09:22;78.68;;;23.75;;
66095;SDS011;53861;53.422;14.530;2023-10-31T07:11:50;79.18;;;21.83;;
66095;SDS011;53861;53.422;14.530;2023-10-31T07:14:18;78.75;;;22.80;;
66095;SDS011;53861;53.422;14.530;2023-10-31T07:16:46;75.63;;;22.55;;
66095;SDS011;53861;53.422;14.530;2023-10-31T07:19:29;79.68;;;22.80;;
66095;SDS011;53861;53.422;14.530;2023-10-31T07:21:56;74.45;;;22.25;;
66095;SDS011;53861;53.422;14.530;2023-10-31T07:24:23;66.18;;;20.25;;
66095;SDS011;53861;53.422;14.530;2023-10-31T07:26:52;73.50;;;22.10;;
66095;SDS011;53861;53.422;14.530;2023-10-31T07:29:21;64.32;;;19.67;;
66095;SDS011;53861;53.422;14.530;2023-10-31T07:31:48;70.82;;;22.00;;
66095;SDS011;53861;53.422;14.530;2023-10-31T07:34:15;70.00;;;22.05;;
66095;SDS011;53861;53.422;14.530;2023-10-31T07:36:42;72.25;;;22.85;;
66095;SDS011;53861;53.422;14.530;2023-10-31T07:39:10;71.32;;;22.30;;
66095;SDS011;53861;53.422;14.530;2023-10-31T07:41:38;70.15;;;22.50;;
66095;SDS011;53861;53.422;14.530;2023-10-31T07:44:05;69.10;;;21.75;;
66095;SDS011;53861;53.422;14.530;2023-10-31T07:46:34;69.10;;;21.17;;
66095;SDS011;53861;53.422;14.530;2023-10-31T07:49:01;67.50;;;21.65;;
66095;SDS011;53861;53.422;14.530;2023-10-31T07:51:29;63.67;;;20.98;;
66095;SDS011;53861;53.422;14.530;2023-10-31T07:53:56;60.47;;;19.70;;
66095;SDS011;53861;53.422;14.530;2023-10-31T07:56:24;62.55;;;20.70;;
66095;SDS011;53861;53.422;14.530;2023-10-31T07:58:52;59.85;;;19.67;;
66095;SDS011;53861;53.422;14.530;2023-10-31T08:01:20;56.45;;;19.17;;
66095;SDS011;53861;53.422;14.530;2023-10-31T08:03:50;58.42;;;18.95;;
66095;SDS011;53861;53.422;14.530;2023-10-31T08:06:18;53.35;;;17.95;;
66095;SDS011;53861;53.422;14.530;2023-10-31T08:08:46;53.83;;;19.02;;
66095;SDS011;53861;53.422;14.530;2023-10-31T08:11:13;55.65;;;18.08;;
66095;SDS011;53861;53.422;14.530;2023-10-31T08:13:41;56.33;;;19.55;;
66095;SDS011;53861;53.422;14.530;2023-10-31T08:16:08;51.20;;;18.40;;
66095;SDS011;53861;53.422;14.530;2023-10-31T08:18:35;51.22;;;16.83;;
66095;SDS011;53861;53.422;14.530;2023-10-31T08:21:04;55.97;;;19.75;;
66095;SDS011;53861;53.422;14.530;2023-10-31T08:23:31;52.35;;;16.50;;
66095;SDS011;53861;53.422;14.530;2023-10-31T08:25:59;53.67;;;16.77;;
66095;SDS011;53861;53.422;14.530;2023-10-31T08:28:26;48.25;;;16.10;;
66095;SDS011;53861;53.422;14.530;2023-10-31T08:30:54;49.42;;;17.38;;
66095;SDS011;53861;53.422;14.530;2023-10-31T08:33:21;62.53;;;17.88;;
66095;SDS011;53861;53.422;14.530;2023-10-31T08:35:48;52.83;;;15.85;;
66095;SDS011;53861;53.422;14.530;2023-10-31T08:38:18;56.03;;;17.45;;
66095;SDS011;53861;53.422;14.530;2023-10-31T08:40:45;53.83;;;16.70;;
66095;SDS011;53861;53.422;14.530;2023-10-31T08:43:14;46.42;;;15.30;;
66095;SDS011;53861;53.422;14.530;2023-10-31T08:45:41;46.78;;;15.82;;
66095;SDS011;53861;53.422;14.530;2023-10-31T08:48:09;43.53;;;14.07;;
66095;SDS011;53861;53.422;14.530;2023-10-31T08:50:37;37.40;;;14.20;;
66095;SDS011;53861;53.422;14.530;2023-10-31T08:53:04;34.92;;;14.55;;
66095;SDS011;53861;53.422;14.530;2023-10-31T08:55:33;36.75;;;14.52;;
66095;SDS011;53861;53.422;14.530;2023-10-31T08:58:00;33.80;;;13.00;;
66095;SDS011;53861;53.422;14.530;2023-10-31T09:00:28;29.80;;;11.60;;
66095;SDS011;53861;53.422;14.530;2023-10-31T09:02:55;30.65;;;11.93;;
66095;SDS011;53861;53.422;14.530;2023-10-31T09:05:22;29.40;;;12.65;;
66095;SDS011;53861;53.422;14.530;2023-10-31T09:07:49;29.90;;;11.63;;
66095;SDS011;53861;53.422;14.530;2023-10-31T09:10:17;25.73;;;11.20;;
66095;SDS011;53861;53.422;14.530;2023-10-31T09:12:45;21.35;;;9.43;;
66095;SDS011;53861;53.422;14.530;2023-10-31T09:15:14;24.30;;;9.88;;
66095;SDS011;53861;53.422;14.530;2023-10-31T09:17:41;22.58;;;9.88;;
66095;SDS011;53861;53.422;14.530;2023-10-31T09:20:09;19.13;;;8.30;;
66095;SDS011;53861;53.422;14.530;2023-10-31T09:22:36;24.13;;;9.85;;
66095;SDS011;53861;53.422;14.530;2023-10-31T09:25:04;20.25;;;9.52;;
66095;SDS011;53861;53.422;14.530;2023-10-31T09:27:32;19.90;;;8.43;;
66095;SDS011;53861;53.422;14.530;2023-10-31T09:30:00;15.35;;;7.38;;
66095;SDS011;53861;53.422;14.530;2023-10-31T09:32:28;16.23;;;6.65;;
66095;SDS011;53861;53.422;14.530;2023-10-31T09:34:55;17.75;;;7.18;;
66095;SDS011;53861;53.422;14.530;2023-10-31T09:37:22;14.65;;;6.68;;
66095;SDS011;53861;53.422;14.530;2023-10-31T09:39:49;14.38;;;6.57;;
66095;SDS011;53861;53.422;14.530;2023-10-31T09:42:17;12.65;;;6.15;;
66095;SDS011;53861;53.422;14.530;2023-10-31T09:44:44;11.75;;;5.30;;
66095;SDS011;53861;53.422;14.530;2023-10-31T09:47:13;16.73;;;5.03;;
66095;SDS011;53861;53.422;14.530;2023-10-31T09:49:41;10.63;;;5.18;;
66095;SDS011;53861;53.422;14.530;2023-10-31T09:52:09;11.45;;;4.93;;
66095;SDS011;53861;53.422;14.530;2023-10-31T09:54:37;7.90;;;4.18;;
66095;SDS011;53861;53.422;14.530;2023-10-31T09:57:06;9.45;;;4.55;;
66095;SDS011;53861;53.422;14.530;2023-10-31T09:59:33;8.82;;;4.70;;
66095;SDS011;53861;53.422;14.530;2023-10-31T10:02:00;8.50;;;4.72;;
66095;SDS011;53861;53.422;14.530;2023-10-31T10:04:29;9.35;;;4.70;;
66095;SDS011;53861;53.422;14.530;2023-10-31T10:07:00;9.65;;;5.32;;
66095;SDS011;53861;53.422;14.530;2023-10-31T10:09:27;10.65;;;5.55;;
66095;SDS011;53861;53.422;14.530;2023-10-31T10:11:55;12.57;;;5.70;;
66095;SDS011;53861;53.422;14.530;2023-10-31T10:14:23;11.50;;;6.30;;
66095;SDS011;53861;53.422;14.530;2023-10-31T10:16:50;4.40;;;2.50;;
66095;SDS011;53861;53.422;14.530;2023-10-31T10:19:18;10.02;;;5.78;;
66095;SDS011;53861;53.422;14.530;2023-10-31T10:21:48;12.10;;;6.60;;
66095;SDS011;53861;53.422;14.530;2023-10-31T10:24:17;11.45;;;5.82;;
66095;SDS011;53861;53.422;14.530;2023-10-31T10:26:44;11.57;;;5.82;;
66095;SDS011;53861;53.422;14.530;2023-10-31T10:29:12;9.10;;;5.53;;
66095;SDS011;53861;53.422;14.530;2023-10-31T10:31:39;9.57;;;4.85;;
66095;SDS011;53861;53.422;14.530;2023-10-31T10:34:07;8.00;;;4.40;;
66095;SDS011;53861;53.422;14.530;2023-10-31T10:36:35;7.57;;;4.30;;
66095;SDS011;53861;53.422;14.530;2023-10-31T10:39:03;6.88;;;4.10;;
66095;SDS011;53861;53.422;14.530;2023-10-31T10:41:34;5.53;;;2.90;;
66095;SDS011;53861;53.422;14.530;2023-10-31T10:44:03;6.45;;;3.28;;
66095;SDS011;53861;53.422;14.530;2023-10-31T10:46:32;7.18;;;3.97;;
66095;SDS011;53861;53.422;14.530;2023-10-31T10:49:03;6.63;;;4.03;;
66095;SDS011;53861;53.422;14.530;2023-10-31T10:51:35;4.43;;;2.22;;
66095;SDS011;53861;53.422;14.530;2023-10-31T10:54:12;6.32;;;3.72;;
66095;SDS011;53861;53.422;14.530;2023-10-31T10:56:46;6.30;;;3.40;;
66095;SDS011;53861;53.422;14.530;2023-10-31T10:59:21;6.03;;;3.65;;
66095;SDS011;53861;53.422;14.530;2023-10-31T11:01:55;6.72;;;3.53;;
66095;SDS011;53861;53.422;14.530;2023-10-31T11:04:26;5.50;;;3.22;;
66095;SDS011;53861;53.422;14.530;2023-10-31T11:06:53;7.43;;;3.30;;
66095;SDS011;53861;53.422;14.530;2023-10-31T11:09:23;7.10;;;3.22;;
66095;SDS011;53861;53.422;14.530;2023-10-31T11:11:50;6.13;;;3.33;;
66095;SDS011;53861;53.422;14.530;2023-10-31T11:14:19;6.32;;;2.92;;
66095;SDS011;53861;53.422;14.530;2023-10-31T11:16:48;5.30;;;2.50;;
66095;SDS011;53861;53.422;14.530;2023-10-31T11:19:18;4.38;;;2.40;;
66095;SDS011;53861;53.422;14.530;2023-10-31T11:21:55;3.92;;;1.90;;
66095;SDS011;53861;53.422;14.530;2023-10-31T11:24:27;4.22;;;2.00;;
66095;SDS011;53861;53.422;14.530;2023-10-31T11:26:58;4.00;;;2.15;;
66095;SDS011;53861;53.422;14.530;2023-10-31T11:29:26;4.25;;;1.67;;
66095;SDS011;53861;53.422;14.530;2023-10-31T11:31:54;3.30;;;1.60;;
66095;SDS011;53861;53.422;14.530;2023-10-31T11:34:22;4.38;;;1.67;;
66095;SDS011;53861;53.422;14.530;2023-10-31T11:36:50;4.03;;;1.50;;
66095;SDS011;53861;53.422;14.530;2023-10-31T11:39:18;2.72;;;1.25;;
66095;SDS011;53861;53.422;14.530;2023-10-31T11:41:53;4.25;;;2.00;;
66095;SDS011;53861;53.422;14.530;2023-10-31T11:44:21;3.90;;;1.60;;
66095;SDS011;53861;53.422;14.530;2023-10-31T11:46:49;3.95;;;1.90;;
66095;SDS011;53861;53.422;14.530;2023-10-31T11:49:17;3.78;;;1.70;;
66095;SDS011;53861;53.422;14.530;2023-10-31T11:52:13;3.47;;;1.50;;
66095;SDS011;53861;53.422;14.530;2023-10-31T11:54:41;3.20;;;1.40;;
66095;SDS011;53861;53.422;14.530;2023-10-31T11:57:10;2.95;;;1.08;;
66095;SDS011;53861;53.422;14.530;2023-10-31T11:59:37;6.55;;;1.45;;
66095;SDS011;53861;53.422;14.530;2023-10-31T12:02:12;3.20;;;1.30;;
66095;SDS011;53861;53.422;14.530;2023-10-31T12:04:40;3.70;;;1.70;;
66095;SDS011;53861;53.422;14.530;2023-10-31T12:07:08;6.30;;;1.40;;
66095;SDS011;53861;53.422;14.530;2023-10-31T12:09:45;3.50;;;1.60;;
66095;SDS011;53861;53.422;14.530;2023-10-31T12:12:14;3.95;;;1.30;;
66095;SDS011;53861;53.422;14.530;2023-10-31T12:14:42;4.10;;;1.30;;
66095;SDS011;53861;53.422;14.530;2023-10-31T12:17:09;3.40;;;1.42;;
66095;SDS011;53861;53.422;14.530;2023-10-31T12:19:36;10.60;;;1.40;;
66095;SDS011;53861;53.422;14.530;2023-10-31T12:22:12;3.92;;;1.40;;
66095;SDS011;53861;53.422;14.530;2023-10-31T12:24:40;4.13;;;1.58;;
66095;SDS011;53861;53.422;14.530;2023-10-31T12:27:08;6.55;;;1.40;;
66095;SDS011;53861;53.422;14.530;2023-10-31T12:29:37;3.90;;;1.33;;
66095;SDS011;53861;53.422;14.530;2023-10-31T12:32:05;6.50;;;1.40;;
66095;SDS011;53861;53.422;14.530;2023-10-31T12:34:42;3.83;;;1.25;;
66095;SDS011;53861;53.422;14.530;2023-10-31T12:37:10;5.63;;;1.52;;
66095;SDS011;53861;53.422;14.530;2023-10-31T12:39:40;4.45;;;1.30;;
66095;SDS011;53861;53.422;14.530;2023-10-31T12:42:07;3.38;;;1.10;;
66095;SDS011;53861;53.422;14.530;2023-10-31T12:44:35;1.17;;;0.57;;
66095;SDS011;53861;53.422;14.530;2023-10-31T12:47:04;2.72;;;1.30;;
66095;SDS011;53861;53.422;14.530;2023-10-31T12:49:34;2.50;;;1.15;;
66095;SDS011;53861;53.422;14.530;2023-10-31T12:52:02;4.22;;;1.20;;
66095;SDS011;53861;53.422;14.530;2023-10-31T12:54:30;2.63;;;1.00;;
66095;SDS011;53861;53.422;14.530;2023-10-31T12:57:00;4.30;;;1.20;;
66095;SDS011;53861;53.422;14.530;2023-10-31T12:59:28;3.45;;;1.30;;
66095;SDS011;53861;53.422;14.530;2023-10-31T13:01:55;2.30;;;1.17;;
66095;SDS011;53861;53.422;14.530;2023-10-31T13:04:27;6.03;;;1.63;;
66095;SDS011;53861;53.422;14.530;2023-10-31T13:06:56;3.30;;;1.40;;
66095;SDS011;53861;53.422;14.530;2023-10-31T13:09:27;3.63;;;1.50;;
66095;SDS011;53861;53.422;14.530;2023-10-31T13:11:57;3.10;;;1.30;;
66095;SDS011;53861;53.422;14.530;2023-10-31T13:14:24;3.78;;;1.60;;
66095;SDS011;53861;53.422;14.530;2023-10-31T13:16:51;5.25;;;1.40;;
66095;SDS011;53861;53.422;14.530;2023-10-31T13:19:19;3.67;;;1.52;;
66095;SDS011;53861;53.422;14.530;2023-10-31T13:21:48;3.55;;;1.30;;
66095;SDS011;53861;53.422;14.530;2023-10-31T13:24:16;2.38;;;1.10;;
66095;SDS011;53861;53.422;14.530;2023-10-31T13:26:44;2.60;;;1.20;;
66095;SDS011;53861;53.422;14.530;2023-10-31T13:29:16;2.05;;;1.10;;
66095;SDS011;53861;53.422;14.530;2023-10-31T13:31:44;4.22;;;1.40;;
66095;SDS011;53861;53.422;14.530;2023-10-31T13:34:11;10.35;;;1.58;;
66095;SDS011;53861;53.422;14.530;2023-10-31T13:36:38;3.33;;;1.55;;
66095;SDS011;53861;53.422;14.530;2023-10-31T13:39:07;4.05;;;1.38;;
66095;SDS011;53861;53.422;14.530;2023-10-31T13:41:34;4.43;;;2.03;;
66095;SDS011;53861;53.422;14.530;2023-10-31T13:44:02;3.03;;;1.40;;
66095;SDS011;53861;53.422;14.530;2023-10-31T13:46:29;9.10;;;2.22;;
66095;SDS011;53861;53.422;14.530;2023-10-31T13:48:56;3.85;;;1.50;;
66095;SDS011;53861;53.422;14.530;2023-10-31T13:51:24;6.45;;;1.98;;
66095;SDS011;53861;53.422;14.530;2023-10-31T13:53:51;6.32;;;1.80;;
66095;SDS011;53861;53.422;14.530;2023-10-31T13:56:20;4.35;;;1.52;;
66095;SDS011;53861;53.422;14.530;2023-10-31T13:58:47;5.78;;;1.73;;
66095;SDS011;53861;53.422;14.530;2023-10-31T14:01:14;2.50;;;1.10;;
66095;SDS011;53861;53.422;14.530;2023-10-31T14:03:42;4.22;;;1.40;;
66095;SDS011;53861;53.422;14.530;2023-10-31T14:06:11;5.85;;;1.75;;
66095;SDS011;53861;53.422;14.530;2023-10-31T14:08:39;2.85;;;1.40;;
66095;SDS011;53861;53.422;14.530;2023-10-31T14:11:06;4.55;;;1.80;;
66095;SDS011;53861;53.422;14.530;2023-10-31T14:13:36;5.25;;;1.83;;
66095;SDS011;53861;53.422;14.530;2023-10-31T14:16:04;6.30;;;1.30;;
66095;SDS011;53861;53.422;14.530;2023-10-31T14:18:32;4.90;;;1.35;;
66095;SDS011;53861;53.422;14.530;2023-10-31T14:20:59;5.13;;;1.45;;
66095;SDS011;53861;53.422;14.530;2023-10-31T14:23:26;2.90;;;1.10;;